Etusivu
METAR-TAF:

METAR-TAF

Lentoasemat :

Tijuana, Meksiko

Leveyspiiri: 32-33N, Pituuspiiri: 116-58W, korkeus merenpinnasta: 152 m

Tämänhetkinen sää

Tämä raportti tehtiin 50 minuuttia sitten, kello 16.40 UTC
Tuuli 5 kn luoteesta
Lämpötila 16°C
Kosteus 23%
Ilmanpaine 1022 hPa
Näkyvyys: 12.9 km
selkeää

METAR: MMTJ 271640Z 32005KT 8SM SKC 16/M05 A3019 RMK HZY

Aika: 09:30 (17:30 UTC)

Sääennuste

Tämä raportti tehtiin 6 tuntia ja 8 minuuttia sitten, kello 11.22 UTC
Ennuste voimassa 27. päivästä klo 12 UTC - 28. päivään klo 18 UTC
Tuuli 5 kn pohjoisen/luoteesta
Näkyvyys: 10 km
selkeää
From 27. päivästä klo 1600 UTC
Tuuli 10 kn pohjoisen/luoteesta
Näkyvyys: 10 km
From 28. päivästä klo 0200 UTC
Tuuli 5 kn pohjoisen/luoteesta
Näkyvyys: 10 km
selkeää
From 28. päivästä klo 1600 UTC
Tuuli 10 kn pohjoisen/luoteesta
Näkyvyys: 10 km
selkeää

TAF: MMTJ 271122Z 2712/2818 34005KT P6SM SKC TX21/2719Z TN09/2712Z FM271600 33010KT P6SM FM280200 34005KT P6SM SKC FM281600 33010KT P6SM SKC

Säähavainnot ja -ennusteet yli 4000 lentoasemalta (METAR- ja TAF-raportit).

Käytössä olevat sääasemat on merkitty karttaan keltaisilla ja punaisilla pisteillä.

Aseta hiiri pisteen päälle nähdäksesi sääaseman nimen.

Klikkaa sitten nähdäksesi säähavainnot ja -ennusteet.

Kartan vaihtaminen: klikkaa mustalla rastilla varustettuja vihreitä pisteitä, niin voit zoomata sisään; viivalla varustettua vihreää pistettä, niin voit zoomata ulos tai vihreitä nuolia, niin pääset viereisille kartoille.


METAR-TAF: